Terminal Aerodrome Forecast
Issued by NWS Goodland, KS

Home | Current Version | Previous Version | Text Only | Print | Product List | Glossary On
Versions: 1 2 3 4 5 6 7 8 9 10 11 12 13 14 15 16 17 18 19 20 21 22 23 24
000
FTUS43 KGLD 242321 AAA
TAFGLD
TAF AMD
KGLD 242321Z 2423/2524 05007KT P6SM VCTS SCT060CB BKN100
      TEMPO 2500/2502 VRB20G30KT -TSRA
     FM250200 27008KT P6SM SCT060 BKN100
     FM251400 31012KT P6SM SKC
     FM251800 35011KT P6SM FEW050
     FM252200 04007KT P6SM SCT060=

USA.gov is the U.S. government's official web portal to all federal, state and local government web resources and services.